Airfield :
LOGIN :

Register | Disclaimer

   EN    FR    IT 

 










Legend :    VFR   Marginal VFR   IFR   Intensive IFR   Very Intensive IFR
Visi :
Ceiling :
>= 8 km
>= 3000ft
5 to 8 km
1000 to 3000 ft
1500m to 5 km
500 to 1000 ft
800 to 1500m
200 to 500 ft
< 800m
< 200 ft
Symbols :   Thunderstorms  Fog  Heavy snow  Heavy precipitations  Wind > 20 kt
SIGMETs :     Misc.  Thunderstorms  Icing  Turbulence  Mountain Waves  Volcanic Ashes







- Airport Elevation : 138 ft
- IATA code : BIO


LEBB - Bilbao

CURRENT METAR :
  • 262300Z AUTO VRB01KT 9999 FEW067 04/03 Q1018

EXPIRED METARs :
  • 262230Z AUTO VRB01KT 9999 FEW058 04/03 Q1018
  • 262200Z VRB01KT 9999 FEW035 SCT050 04/03 Q1019 NOSIG
  • 262130Z VRB02KT 9999 FEW035 SCT050 05/04 Q1019 NOSIG
  • 262100Z VRB01KT 9999 FEW035 SCT050 06/04 Q1019 NOSIG
  • 262030Z 00000KT 9999 FEW035 SCT050 06/04 Q1019 NOSIG

TAF TAF LEBB
Valid from the 26 at 18:00 until the 27 at 18:00 UTC


261700Z 2618/2718 35007KT 9999 SCT030 TX13/2715Z TN05/2706Z
PROB30
TEMPO 2700/2706 RA
PROB40
TEMPO 2706/2712 3000 RA SHRA SCT025TCU
No reported NOTAMs for that airfield.



MET'MAP, your aeronautical weather chart ! - Copyright ORBIFLY December 2007 - Disclaimer

ORBIFLY MET'MAP TEAM :

Programming & Development : Alexandra Zaïnal
Concept & Development : Baudouin d'Aumeries
Co-Development & Prog : Marc-Olivier Méhu
Technical & hardware support : Manuel Goepfert

Contact : metmap@orbifly.com




SOURCES & CREDITS :

   NOAA